Disclaimer

Please do not use the information listed here in-flight or in-navigation, as they are not provided to us by the airports but are provided by volunteers, so they might be outdated.

Search


Regions


Airport information page

Radio informations:
Tower (TWR) - 118.1 MHz

Airport informations:
Latitude: 20° 31' 20.65" N
Longitude: 086° 55' 32.32" W
Elevation: 15 feet - 5 meters
Operating hours: Remarks
Operating agency: Military-civil joint use airport
Timezone: UTC-6(-5DT) - First Sunday in April to the last Saturday in October
Fuel: Jet A1, without icing nhibitor.

100/130 MIL Spec, low lead, aviation gasoline (BLUE)

Runway information:
05/23 - 10165 x 148 feet< - >3098 x 45 meters
11/29 - 8858 x 148 feet< - >2700 x 45 meters

Recent METARs:
MMCZ 131348Z 09005KT 8SM SCT015TCU 28/25 A2999 RMK 8/200
MMCZ 131441Z 11006KT 8SM SCT015TCU 29/25 A2999 RMK SLP161 52011 903 8/200
MMCZ 131441Z 11006KT 8SM SCT015TCU 29/25 A2999 RMK SLP161 52011 903 8/200

Airport on the map: